MMMY/MTY METAR and TAF weather

Enter ICAO airport designator
Station Type Date Time Source
MMMY METAR 2019/06/16 19:40 UTC NOAA

MMMY 161940Z 17010KT 7SM SCT070 34/21 A2979 RMK 8/030 HZY


Station Type Date Time Source
MMMY Decoded METAR 2019/06/16 19:40 UTC NOAA

Monterrey / Gen Maria, Mexico (MMMY) 25-47N 100-06W
Jun 16, 2019 - 03:40 PM EDT / 2019.06.16 1940 UTC
Wind: from the S (170 degrees) at 12 MPH (10 KT):0
Visibility: 7 mile(s):0
Sky conditions: partly cloudy
Temperature: 93 F (34 C)
Heat index: 98.4 F (36.9 C):1
Dew Point: 69 F (21 C)
Relative Humidity: 46%
Pressure (altimeter): 29.79 in. Hg (1008 hPa)
ob: MMMY 161940Z 17010KT 7SM SCT070 34/21 A2979 RMK 8/030 HZY
cycle: 19

Station Type Date Time Source
MMMY TAF 2019/06/16 18:16 UTC NOAA

TAF MMMY 161709Z 1618/1724 12010KT P6SM SCT025 BKN080 TX37/1622Z TN25/1712Z
FM170300 15005KT 6SM HZ BKN015
BECMG 1710/1711 4SM -RA BR OVC010
FM171600 12008KT 6SM HZ BKN015
FM171900 12010KT P6SM SCT035

Example: see airport list